Time;durP1;ratioP1;P1;durP2;ratioP2;P2;SDS_P1;SDS_P2;PMS_P1;PMS_P2;Temp;Humidity;BMP_temperature;BMP_pressure;BME280_temperature;BME280_humidity;BME280_pressure;Samples;Min_cycle;Max_cycle;Signal;HPM_P1;HPM_P2
2021/11/09 00:01:18;;;;;;;2.30;2.20;;;;;;;;;;7335602;19;153994;-12
2021/11/09 00:03:57;;;;;;;2.10;1.90;;;;;;;;;;7336282;19;153706;-10
2021/11/09 00:06:31;;;;;;;2.05;1.95;;;;;;;;;;7335949;19;162050;-12
2021/11/09 00:09:07;;;;;;;2.33;2.20;;;;;;;;;;7336850;19;162377;-15
2021/11/09 00:11:39;;;;;;;1.77;1.67;;;;;;;;;;7338222;19;153960;-12
2021/11/09 00:14:13;;;;;;;2.13;2.03;;;;;;;;;;7332497;19;153820;-12
2021/11/09 00:16:44;;;;;;;1.90;1.80;;;;;;;;;;7335474;19;162032;-13
2021/11/09 00:19:16;;;;;;;2.03;1.90;;;;;;;;;;7335945;19;162477;-11
2021/11/09 00:21:47;;;;;;;2.20;2.10;;;;;;;;;;7334860;19;154214;-13
2021/11/09 00:24:18;;;;;;;1.95;1.85;;;;;;;;;;7335634;19;153527;-11
2021/11/09 00:26:50;;;;;;;1.85;1.75;;;;;;;;;;7335846;19;161868;-11
2021/11/09 00:29:24;;;;;;;1.77;1.67;;;;;;;;;;7335484;19;162690;-10
2021/11/09 00:31:55;;;;;;;1.98;1.88;;;;;;;;;;7336039;19;154329;-12
2021/11/09 00:34:27;;;;;;;2.00;1.90;;;;;;;;;;7335935;19;153618;-12
2021/11/09 00:36:58;;;;;;;1.80;1.70;;;;;;;;;;7335550;19;161978;-12
2021/11/09 00:39:29;;;;;;;2.47;1.75;;;;;;;;;;7329570;19;162391;-12
2021/11/09 00:42:01;;;;;;;1.52;1.42;;;;;;;;;;7329217;19;154138;-11
2021/11/09 00:44:35;;;;;;;1.83;1.73;;;;;;;;;;7334570;19;153550;-11
2021/11/09 00:47:07;;;;;;;1.80;1.70;;;;;;;;;;7334795;19;161973;-10
2021/11/09 00:49:39;;;;;;;1.70;1.60;;;;;;;;;;7334981;19;162304;-11
2021/11/09 00:52:11;;;;;;;1.50;1.40;;;;;;;;;;7332576;19;154189;-13
2021/11/09 00:54:42;;;;;;;1.70;1.60;;;;;;;;;;7335352;19;153622;-10
2021/11/09 00:57:14;;;;;;;1.58;1.48;;;;;;;;;;7334983;19;162365;-11
2021/11/09 00:59:48;;;;;;;1.73;1.63;;;;;;;;;;7333592;19;162409;-11
2021/11/09 01:02:19;;;;;;;1.67;1.58;;;;;;;;;;7332471;19;154211;-12
2021/11/09 01:04:50;;;;;;;1.75;1.65;;;;;;;;;;7333324;19;153503;-14
2021/11/09 01:07:21;;;;;;;1.70;1.60;;;;;;;;;;7334771;19;161970;-11
2021/11/09 01:09:53;;;;;;;1.77;1.67;;;;;;;;;;7332053;19;162393;-12
2021/11/09 01:12:24;;;;;;;1.70;1.60;;;;;;;;;;7334283;19;153992;-10
2021/11/09 01:14:58;;;;;;;2.92;1.75;;;;;;;;;;7334255;19;153550;-10
2021/11/09 01:17:30;;;;;;;1.60;1.50;;;;;;;;;;7334530;19;161837;-11
2021/11/09 01:20:02;;;;;;;2.93;1.90;;;;;;;;;;7331273;19;162697;-12
2021/11/09 01:22:33;;;;;;;1.55;1.45;;;;;;;;;;7331666;19;153962;-11
2021/11/09 01:25:06;;;;;;;1.75;1.65;;;;;;;;;;7333476;19;153633;-12
2021/11/09 01:27:38;;;;;;;1.48;1.48;;;;;;;;;;7334122;19;162001;-10
2021/11/09 01:30:14;;;;;;;1.60;1.50;;;;;;;;;;7330457;19;162746;-11
2021/11/09 10:46:44;;;;;;;1.90;0.50;;;;;;;;;;7373582;19;132534;-12
2021/11/09 10:49:15;;;;;;;0.85;0.50;;;;;;;;;;7367654;19;153539;-13
2021/11/09 10:51:55;;;;;;;0.55;0.55;;;;;;;;;;7365372;19;161809;-11
2021/11/09 10:54:45;;;;;;;0.60;0.50;;;;;;;;;;7365353;19;162309;-12
2021/11/09 10:57:23;;;;;;;0.70;0.30;;;;;;;;;;7367885;19;153917;-11
2021/11/09 11:00:15;;;;;;;0.52;0.40;;;;;;;;;;7367386;19;153883;-13
2021/11/09 11:05:32;;;;;;;0.65;0.50;;;;;;;;;;7366822;19;162532;-13
2021/11/09 11:08:04;;;;;;;0.52;0.50;;;;;;;;;;7366573;19;153866;-12
2021/11/09 11:10:38;;;;;;;0.57;0.57;;;;;;;;;;7367143;19;153644;-13
2021/11/09 11:13:20;;;;;;;0.40;0.40;;;;;;;;;;7367011;19;162124;-13
2021/11/09 11:16:07;;;;;;;0.65;0.57;;;;;;;;;;7360432;19;162363;-11
2021/11/09 11:18:42;;;;;;;1.23;0.40;;;;;;;;;;7362597;19;154208;-12
2021/11/09 11:21:17;;;;;;;1.00;0.60;;;;;;;;;;7367188;19;153560;-12
2021/11/09 11:23:48;;;;;;;2.17;0.60;;;;;;;;;;7366262;19;161864;-13
2021/11/09 11:26:21;;;;;;;0.40;0.40;;;;;;;;;;7365042;19;162336;-11
2021/11/09 11:28:54;;;;;;;0.50;0.50;;;;;;;;;;7365032;19;153939;-12
2021/11/09 11:31:28;;;;;;;0.57;0.57;;;;;;;;;;7367306;19;153531;-11
2021/11/09 11:34:03;;;;;;;1.17;0.40;;;;;;;;;;7363964;19;161901;-12
2021/11/09 11:36:34;;;;;;;1.17;0.63;;;;;;;;;;7362707;19;162392;-11
2021/11/09 11:39:09;;;;;;;2.30;0.80;;;;;;;;;;7366400;19;154012;-13
2021/11/09 11:41:45;;;;;;;0.85;0.60;;;;;;;;;;7366967;19;153555;-11
2021/11/09 11:44:24;;;;;;;1.85;0.60;;;;;;;;;;7363312;19;161807;-11
2021/11/09 11:46:57;;;;;;;1.13;0.47;;;;;;;;;;7345697;19;162358;-14
2021/11/09 11:49:49;;;;;;;0.40;0.35;;;;;;;;;;7338146;19;153913;-13
2021/11/09 11:52:24;;;;;;;0.47;0.40;;;;;;;;;;7336372;19;154212;-12
2021/11/09 11:55:00;;;;;;;1.05;0.40;;;;;;;;;;7335597;19;162019;-16
2021/11/09 11:57:50;;;;;;;0.43;0.43;;;;;;;;;;7337204;19;162406;-13
2021/11/09 12:00:34;;;;;;;1.10;0.60;;;;;;;;;;7336025;19;154220;-17
2021/11/09 12:03:27;;;;;;;0.40;0.40;;;;;;;;;;7336773;19;155226;-12
2021/11/09 12:06:02;;;;;;;1.48;0.57;;;;;;;;;;7329835;19;161547;-15
2021/11/09 12:08:39;;;;;;;0.40;0.40;;;;;;;;;;7333038;19;162813;-14
2021/11/09 12:11:12;;;;;;;0.90;0.40;;;;;;;;;;7337306;19;153944;-12
2021/11/09 12:13:57;;;;;;;0.52;0.47;;;;;;;;;;7329024;19;153547;-13
2021/11/09 12:16:48;;;;;;;0.50;0.50;;;;;;;;;;7329815;19;162097;-14
2021/11/09 12:19:58;;;;;;;0.65;0.50;;;;;;;;;;7336151;19;162339;-11
2021/11/09 12:22:48;;;;;;;0.40;0.40;;;;;;;;;;7333954;19;154086;-12
2021/11/09 12:25:39;;;;;;;0.40;0.40;;;;;;;;;;7335134;19;153565;-14
2021/11/09 12:28:14;;;;;;;0.50;0.50;;;;;;;;;;7326484;19;161843;-12
2021/11/09 12:30:53;;;;;;;0.52;0.50;;;;;;;;;;7331903;19;162439;-14
2021/11/09 12:33:27;;;;;;;0.40;0.40;;;;;;;;;;7336094;19;153943;-14
2021/11/09 12:36:24;;;;;;;0.40;0.40;;;;;;;;;;7334136;19;154497;-12
2021/11/09 12:39:01;;;;;;;0.40;0.40;;;;;;;;;;7334091;19;162584;-14
2021/11/09 12:41:37;;;;;;;0.30;0.30;;;;;;;;;;7334186;19;162595;-14
2021/11/09 12:44:10;;;;;;;0.60;0.40;;;;;;;;;;7334092;19;153997;-12
2021/11/09 12:46:46;;;;;;;0.52;0.38;;;;;;;;;;7330912;19;153677;-12
2021/11/09 12:49:24;;;;;;;0.38;0.38;;;;;;;;;;7330509;19;162313;-14
2021/11/09 12:51:58;;;;;;;0.52;0.50;;;;;;;;;;7333998;19;162547;-14
2021/11/09 12:54:34;;;;;;;0.40;0.40;;;;;;;;;;7333876;19;154160;-13
2021/11/09 12:57:08;;;;;;;1.17;0.32;;;;;;;;;;7330554;19;153849;-11
2021/11/09 12:59:42;;;;;;;0.47;0.40;;;;;;;;;;7332608;19;161838;-13
2021/11/09 13:02:23;;;;;;;0.28;0.28;;;;;;;;;;7330521;19;162766;-15
2021/11/09 13:05:03;;;;;;;0.40;0.40;;;;;;;;;;7333630;19;153861;-12
2021/11/09 13:07:36;;;;;;;0.35;0.35;;;;;;;;;;7335186;19;154032;-14
2021/11/09 13:10:17;;;;;;;0.55;0.30;;;;;;;;;;7331034;19;161808;-15
2021/11/09 13:12:50;;;;;;;0.35;0.35;;;;;;;;;;7332192;19;162361;-12
2021/11/09 13:15:23;;;;;;;0.30;0.30;;;;;;;;;;7335263;19;153927;-13
2021/11/09 13:18:01;;;;;;;0.80;0.47;;;;;;;;;;7332147;19;154009;-14
2021/11/09 13:20:47;;;;;;;0.40;0.40;;;;;;;;;;7330796;19;161825;-13
2021/11/09 13:23:23;;;;;;;1.08;0.50;;;;;;;;;;7334275;19;162364;-12
2021/11/09 13:25:58;;;;;;;0.35;0.35;;;;;;;;;;7333924;19;153958;-12
2021/11/09 13:28:36;;;;;;;0.30;0.30;;;;;;;;;;7334852;19;153588;-13
2021/11/09 13:31:10;;;;;;;0.50;0.50;;;;;;;;;;7332220;19;161832;-13
2021/11/09 13:33:48;;;;;;;1.17;0.40;;;;;;;;;;7333206;19;162462;-13
2021/11/09 13:36:24;;;;;;;0.73;0.40;;;;;;;;;;7331715;19;154099;-11
2021/11/09 13:38:57;;;;;;;0.50;0.40;;;;;;;;;;7329897;19;155017;-14
2021/11/09 13:41:33;;;;;;;0.98;0.40;;;;;;;;;;7333406;19;161814;-14
2021/11/09 13:44:10;;;;;;;0.70;0.55;;;;;;;;;;7334445;19;163670;-14
2021/11/09 13:46:44;;;;;;;37.47;23.73;;;;;;;;;;7332067;19;154071;-12
2021/11/09 13:49:19;;;;;;;37.88;23.45;;;;;;;;;;7333893;19;153606;-13
2021/11/09 13:51:58;;;;;;;29.80;20.60;;;;;;;;;;7334247;19;161933;-11
2021/11/09 13:54:40;;;;;;;29.83;19.08;;;;;;;;;;7331867;19;162459;-14
2021/11/09 13:57:14;;;;;;;25.30;17.07;;;;;;;;;;7332307;19;154256;-14
2021/11/09 13:59:46;;;;;;;20.95;15.15;;;;;;;;;;7333331;19;153412;-13
2021/11/09 14:02:25;;;;;;;20.50;13.73;;;;;;;;;;7332862;19;161766;-13
2021/11/09 14:05:35;;;;;;;15.45;11.88;;;;;;;;;;7331872;19;162712;-13
2021/11/09 14:11:35;;;;;;;14.40;11.25;;;;;;;;;;7331731;19;154232;-12
2021/11/09 14:16:56;;;;;;;12.93;10.23;;;;;;;;;;7327986;19;162547;-13
2021/11/09 14:19:32;;;;;;;14.20;10.73;;;;;;;;;;7330050;19;154108;-11
2021/11/09 14:22:13;;;;;;;12.10;10.07;;;;;;;;;;7332100;19;153602;-12
2021/11/09 14:24:45;;;;;;;17.67;11.38;;;;;;;;;;7329770;19;162208;-12
2021/11/09 14:27:17;;;;;;;13.20;10.68;;;;;;;;;;7329742;19;162511;-12
2021/11/09 14:29:58;;;;;;;12.73;9.97;;;;;;;;;;7332394;19;154116;-13
2021/11/09 14:32:33;;;;;;;14.30;10.45;;;;;;;;;;7331424;19;153635;-15
2021/11/09 14:35:08;;;;;;;14.20;9.48;;;;;;;;;;7331792;19;161762;-13
2021/11/09 14:37:53;;;;;;;12.82;10.27;;;;;;;;;;7324856;19;162393;-14
2021/11/09 14:40:32;;;;;;;11.32;9.18;;;;;;;;;;7330010;19;154081;-12
2021/11/09 14:43:16;;;;;;;13.60;9.88;;;;;;;;;;7329181;19;153483;-13
2021/11/09 14:45:54;;;;;;;;;;;;;;;;;;7327724;19;161926;-13
2021/11/09 14:48:35;;;;;;;12.38;8.98;;;;;;;;;;7329491;19;162786;-12
2021/11/09 14:51:13;;;;;;;11.05;9.25;;;;;;;;;;7329502;19;153942;-12
2021/11/09 14:53:58;;;;;;;9.90;8.35;;;;;;;;;;7328272;19;153566;-12
2021/11/09 14:56:32;;;;;;;10.68;8.93;;;;;;;;;;7328922;19;162130;-13
2021/11/09 14:59:05;;;;;;;10.40;8.40;;;;;;;;;;7327584;19;162452;-13
2021/11/09 15:01:43;;;;;;;10.00;7.93;;;;;;;;;;7328987;19;153958;-14
2021/11/09 15:04:19;;;;;;;11.70;8.63;;;;;;;;;;7328946;19;153577;-12
2021/11/09 15:07:05;;;;;;;11.43;8.35;;;;;;;;;;7328381;19;161816;-15
2021/11/09 15:09:49;;;;;;;11.18;8.13;;;;;;;;;;7328388;19;162549;-15
2021/11/09 15:12:33;;;;;;;9.50;7.93;;;;;;;;;;7328673;19;154296;-13
2021/11/09 15:26:12;;;;;;;8.80;7.38;;;;;;;;;;7335457;19;153819;-14
2021/11/09 15:28:56;;;;;;;10.80;7.82;;;;;;;;;;7334835;19;161831;-15
2021/11/09 15:31:33;;;;;;;8.20;7.35;;;;;;;;;;7334904;19;162364;-14
2021/11/09 15:34:14;;;;;;;8.70;6.82;;;;;;;;;;7334029;19;154095;-12
2021/11/09 15:36:54;;;;;;;7.40;6.70;;;;;;;;;;7335103;19;153490;-14
2021/11/09 15:39:30;;;;;;;8.38;6.78;;;;;;;;;;7334481;19;162042;-12
2021/11/09 15:42:03;;;;;;;8.00;6.40;;;;;;;;;;7334535;19;162398;-15
2021/11/09 15:44:34;;;;;;;7.97;6.55;;;;;;;;;;7334509;19;153959;-13
2021/11/09 15:47:05;;;;;;;7.63;6.72;;;;;;;;;;7334787;19;153821;-14
2021/11/09 15:49:40;;;;;;;8.00;6.38;;;;;;;;;;7333059;19;162017;-12
2021/11/09 15:52:11;;;;;;;7.20;6.05;;;;;;;;;;7334235;19;162502;-13
2021/11/09 15:54:49;;;;;;;7.18;6.18;;;;;;;;;;7334431;19;153931;-14
2021/11/09 15:57:23;;;;;;;7.00;6.30;;;;;;;;;;7334516;19;153542;-13
2021/11/09 15:59:56;;;;;;;7.72;6.57;;;;;;;;;;7334053;19;161870;-13
2021/11/09 16:02:28;;;;;;;;;;;;;;;;;;7334369;19;162468;-14
2021/11/09 16:05:04;;;;;;;6.63;5.82;;;;;;;;;;7334376;19;154178;-15
2021/11/09 16:07:35;;;;;;;6.35;5.50;;;;;;;;;;7334185;19;153443;-14
2021/11/09 16:10:08;;;;;;;6.18;5.55;;;;;;;;;;7333779;19;162047;-15
2021/11/09 16:12:39;;;;;;;6.53;5.55;;;;;;;;;;7333481;19;162412;-13
2021/11/09 16:15:11;;;;;;;6.03;5.43;;;;;;;;;;7333931;19;154113;-15
2021/11/09 16:17:42;;;;;;;5.90;5.28;;;;;;;;;;7333534;19;153568;-14
2021/11/09 16:20:19;;;;;;;6.25;4.95;;;;;;;;;;7333415;19;161934;-14
2021/11/09 16:22:51;;;;;;;5.95;5.20;;;;;;;;;;7333308;19;162363;-14
2021/11/09 16:25:22;;;;;;;5.70;5.10;;;;;;;;;;7333724;19;154057;-13
2021/11/09 16:27:53;;;;;;;6.20;5.35;;;;;;;;;;7333608;19;153760;-13
2021/11/09 16:30:31;;;;;;;5.80;4.82;;;;;;;;;;7333012;19;161828;-16
2021/11/09 16:33:06;;;;;;;6.28;4.90;;;;;;;;;;7332859;19;162793;-14
2021/11/09 16:35:42;;;;;;;6.10;5.30;;;;;;;;;;7333215;19;153931;-15
2021/11/09 16:38:17;;;;;;;5.30;4.80;;;;;;;;;;7332534;19;153696;-13
2021/11/09 16:41:07;;;;;;;5.65;5.15;;;;;;;;;;7332728;19;161898;-12
2021/11/09 16:43:41;;;;;;;5.85;4.55;;;;;;;;;;7332382;19;162887;-14
2021/11/09 16:46:24;;;;;;;5.35;4.47;;;;;;;;;;7330654;19;154182;-14
2021/11/09 16:49:05;;;;;;;4.70;4.30;;;;;;;;;;7332906;19;153682;-14
2021/11/09 16:51:41;;;;;;;5.47;4.85;;;;;;;;;;7332562;19;161760;-13
2021/11/09 16:54:22;;;;;;;5.18;4.50;;;;;;;;;;7332248;19;162394;-12
2021/11/09 17:02:32;;;;;;;4.25;3.85;;;;;;;;;;7332172;19;161968;-14
2021/11/09 18:14:32;;;;;;;3.42;2.92;;;;;;;;;;7330620;19;154682;-12
2021/11/09 18:22:33;;;;;;;3.10;2.80;;;;;;;;;;7330017;19;162362;-15
2021/11/09 18:25:07;;;;;;;2.78;2.58;;;;;;;;;;7330255;19;154048;-16
2021/11/09 18:27:38;;;;;;;2.80;2.60;;;;;;;;;;7330034;19;153563;-13
2021/11/09 18:30:15;;;;;;;3.17;2.88;;;;;;;;;;7329550;19;162138;-15
2021/11/09 18:32:47;;;;;;;3.25;2.95;;;;;;;;;;7328512;19;162384;-15
2021/11/09 18:35:21;;;;;;;3.00;2.70;;;;;;;;;;7329860;19;154132;-15
2021/11/09 18:37:56;;;;;;;3.00;2.70;;;;;;;;;;7329718;19;153776;-15
2021/11/09 18:40:28;;;;;;;3.00;2.70;;;;;;;;;;7327235;19;161822;-13
2021/11/09 18:42:59;;;;;;;3.03;2.72;;;;;;;;;;7329309;19;162392;-14
2021/11/09 18:45:36;;;;;;;2.67;2.47;;;;;;;;;;7327897;19;154029;-14
2021/11/09 18:48:08;;;;;;;2.72;2.53;;;;;;;;;;7329706;19;153584;-13
2021/11/09 18:50:41;;;;;;;2.50;2.30;;;;;;;;;;7329278;19;161756;-15
2021/11/09 18:53:13;;;;;;;2.60;2.40;;;;;;;;;;7329246;19;162663;-12
2021/11/09 18:55:45;;;;;;;2.97;2.77;;;;;;;;;;7329361;19;153993;-13
2021/11/09 18:58:16;;;;;;;2.95;2.33;;;;;;;;;;7336204;19;153564;-15
2021/11/09 19:00:51;;;;;;;2.85;2.55;;;;;;;;;;7333915;19;161985;-13
2021/11/09 19:03:22;;;;;;;2.60;2.40;;;;;;;;;;7334339;19;162180;-16
2021/11/09 19:05:54;;;;;;;2.47;2.28;;;;;;;;;;7335904;19;154040;-15
2021/11/09 19:08:25;;;;;;;2.40;2.20;;;;;;;;;;7334891;19;153542;-13
2021/11/09 19:10:57;;;;;;;3.13;2.75;;;;;;;;;;7334516;19;162043;-12
2021/11/09 19:13:28;;;;;;;2.90;2.40;;;;;;;;;;7334597;19;162413;-14
2021/11/09 19:16:04;;;;;;;2.50;2.30;;;;;;;;;;7335683;19;154270;-14
2021/11/09 19:18:36;;;;;;;2.33;2.13;;;;;;;;;;7335523;19;153600;-13
2021/11/09 19:21:07;;;;;;;1.83;1.73;;;;;;;;;;7332163;19;161950;-15
2021/11/09 19:23:39;;;;;;;2.67;1.95;;;;;;;;;;7334782;19;162386;-12
2021/11/09 19:26:11;;;;;;;1.85;1.70;;;;;;;;;;7335153;19;154222;-14
2021/11/09 19:28:44;;;;;;;2.20;2.00;;;;;;;;;;7336299;19;153509;-15
2021/11/09 19:31:18;;;;;;;2.10;1.90;;;;;;;;;;7337916;19;161750;-12
2021/11/09 19:33:49;;;;;;;1.98;1.88;;;;;;;;;;7338155;19;162473;-15
2021/11/09 19:36:21;;;;;;;2.17;1.98;;;;;;;;;;7338137;19;154203;-13
2021/11/09 19:39:00;;;;;;;2.00;1.80;;;;;;;;;;7337725;19;153894;-13
2021/11/09 19:41:31;;;;;;;2.00;1.80;;;;;;;;;;7336574;19;161918;-12
2021/11/09 19:44:09;;;;;;;1.73;1.63;;;;;;;;;;7334345;19;163046;-13
2021/11/09 19:46:45;;;;;;;2.20;2.00;;;;;;;;;;7333452;19;154046;-12
2021/11/09 19:49:20;;;;;;;1.85;1.73;;;;;;;;;;7337046;19;153521;-14
2021/11/09 19:51:53;;;;;;;1.67;1.58;;;;;;;;;;7334225;19;162059;-14
2021/11/09 19:54:26;;;;;;;1.92;1.80;;;;;;;;;;7334244;19;162456;-15
2021/11/09 19:56:58;;;;;;;2.22;2.03;;;;;;;;;;7334671;19;154177;-13
2021/11/09 19:59:30;;;;;;;1.80;1.70;;;;;;;;;;7336152;19;154038;-13
2021/11/09 20:02:05;;;;;;;1.70;1.60;;;;;;;;;;7335027;19;161245;-14
2021/11/09 20:04:36;;;;;;;2.10;2.00;;;;;;;;;;7337385;19;162534;-12
2021/11/09 20:07:08;;;;;;;2.30;2.10;;;;;;;;;;7336296;19;153988;-15
2021/11/09 20:09:40;;;;;;;2.47;2.28;;;;;;;;;;7337427;19;153666;-14
2021/11/09 20:12:13;;;;;;;1.98;1.58;;;;;;;;;;7337004;19;162024;-13
2021/11/09 20:14:47;;;;;;;1.70;1.60;;;;;;;;;;7337072;19;162498;-19
2021/11/09 20:17:22;;;;;;;2.13;1.92;;;;;;;;;;7337246;19;153900;-16
2021/11/09 20:20:02;;;;;;;1.80;1.70;;;;;;;;;;7336830;19;153532;-15
2021/11/09 20:22:36;;;;;;;1.60;1.50;;;;;;;;;;7335415;19;161982;-16
2021/11/09 20:25:10;;;;;;;1.70;1.60;;;;;;;;;;7336511;19;162440;-15
2021/11/09 20:27:44;;;;;;;2.08;1.80;;;;;;;;;;7336512;19;153741;-13
2021/11/09 20:30:17;;;;;;;1.45;1.35;;;;;;;;;;7336900;19;153555;-15
2021/11/09 20:32:52;;;;;;;1.50;1.40;;;;;;;;;;7336550;19;161757;-15
2021/11/09 20:35:25;;;;;;;1.60;1.50;;;;;;;;;;7334174;19;163060;-13
2021/11/09 20:37:58;;;;;;;;;;;;;;;;;;7335391;19;154302;-15
2021/11/09 20:40:30;;;;;;;1.40;1.30;;;;;;;;;;7336004;19;153587;-15
2021/11/09 20:43:02;;;;;;;1.10;1.10;;;;;;;;;;7335719;19;161963;-13
2021/11/09 20:45:35;;;;;;;1.30;1.20;;;;;;;;;;7334170;19;162306;-13
2021/11/09 20:48:09;;;;;;;1.50;1.40;;;;;;;;;;7336000;19;153914;-12
2021/11/09 20:50:41;;;;;;;1.33;1.27;;;;;;;;;;7335932;19;153544;-19
2021/11/09 20:53:14;;;;;;;1.27;1.17;;;;;;;;;;7335659;19;161790;-12
2021/11/09 20:55:46;;;;;;;1.30;1.20;;;;;;;;;;7335578;19;162496;-16
2021/11/09 20:58:18;;;;;;;1.30;1.20;;;;;;;;;;7334505;19;154373;-13
2021/11/09 21:00:50;;;;;;;1.25;1.15;;;;;;;;;;7334029;19;153529;-12
2021/11/09 21:03:24;;;;;;;1.30;1.20;;;;;;;;;;7335566;19;161795;-13
2021/11/09 21:05:57;;;;;;;1.20;1.20;;;;;;;;;;7335546;19;163097;-14
2021/11/09 21:08:28;;;;;;;1.40;1.30;;;;;;;;;;7335364;19;153966;-12
2021/11/09 21:11:01;;;;;;;1.20;1.20;;;;;;;;;;7334058;19;153747;-14
2021/11/09 21:14:03;;;;;;;1.48;1.30;;;;;;;;;;7333342;19;161969;-12
2021/11/09 21:19:21;;;;;;;1.20;1.10;;;;;;;;;;7333588;19;154145;-13
2021/11/09 21:21:53;;;;;;;1.42;1.20;;;;;;;;;;7332533;19;153503;-13
2021/11/09 21:24:24;;;;;;;1.42;1.40;;;;;;;;;;7332472;19;161562;-14
2021/11/09 21:26:56;;;;;;;1.27;1.27;;;;;;;;;;7334279;19;162371;-14
2021/11/09 21:29:49;;;;;;;1.00;1.00;;;;;;;;;;7334185;19;154211;-13
2021/11/09 21:35:15;;;;;;;3.00;1.52;;;;;;;;;;7329694;19;162172;-15
2021/11/09 21:37:50;;;;;;;1.58;1.25;;;;;;;;;;7333822;19;162498;-14
2021/11/09 21:40:25;;;;;;;1.80;1.70;;;;;;;;;;7334205;19;154001;-14
2021/11/09 21:42:59;;;;;;;1.45;1.38;;;;;;;;;;7330144;19;153601;-15
2021/11/09 21:45:31;;;;;;;1.85;1.33;;;;;;;;;;7331282;19;162072;-13
2021/11/09 21:48:03;;;;;;;2.75;1.50;;;;;;;;;;7333152;19;162330;-12
2021/11/09 21:50:38;;;;;;;1.83;1.52;;;;;;;;;;7333137;19;154183;-12
2021/11/09 21:53:11;;;;;;;1.20;1.20;;;;;;;;;;7332697;19;153521;-13
2021/11/09 21:55:43;;;;;;;1.65;1.50;;;;;;;;;;7332075;19;161966;-13
2021/11/09 21:58:14;;;;;;;1.70;1.50;;;;;;;;;;7333069;19;162349;-15
2021/11/09 22:00:46;;;;;;;1.77;1.45;;;;;;;;;;7333146;19;153930;-15
2021/11/09 22:03:17;;;;;;;1.50;1.40;;;;;;;;;;7331158;19;153774;-13
2021/11/09 22:05:51;;;;;;;2.08;1.50;;;;;;;;;;7332540;19;161793;-15
2021/11/09 22:08:23;;;;;;;1.40;1.30;;;;;;;;;;7332637;19;162634;-14
2021/11/09 22:10:54;;;;;;;1.30;1.30;;;;;;;;;;7333859;19;153987;-14
2021/11/09 22:13:26;;;;;;;1.65;1.35;;;;;;;;;;7333135;19;153837;-13
2021/11/09 22:15:57;;;;;;;1.30;1.20;;;;;;;;;;7332718;19;161777;-14
2021/11/09 22:18:29;;;;;;;1.65;1.50;;;;;;;;;;7332358;19;162378;-13
2021/11/09 22:21:03;;;;;;;1.10;1.10;;;;;;;;;;7332589;19;154204;-13
2021/11/09 22:23:35;;;;;;;1.02;1.02;;;;;;;;;;7330005;19;153501;-13
2021/11/09 22:26:06;;;;;;;1.40;1.30;;;;;;;;;;7332285;19;162832;-13
2021/11/09 22:28:38;;;;;;;1.40;1.30;;;;;;;;;;7331985;19;162705;-12
2021/11/09 22:31:09;;;;;;;1.35;1.25;;;;;;;;;;7332096;19;153983;-14
2021/11/09 22:33:41;;;;;;;0.93;0.93;;;;;;;;;;7332622;19;153506;-13
2021/11/09 22:36:15;;;;;;;1.42;1.30;;;;;;;;;;7332474;19;161870;-13
2021/11/09 22:38:46;;;;;;;1.30;1.20;;;;;;;;;;7332546;19;162356;-14
2021/11/09 22:41:17;;;;;;;1.30;1.20;;;;;;;;;;7332193;19;154077;-13
2021/11/09 22:43:49;;;;;;;1.23;1.13;;;;;;;;;;7330019;19;153259;-16
2021/11/09 22:46:20;;;;;;;3.03;1.42;;;;;;;;;;7329140;19;161916;-15
2021/11/09 22:48:52;;;;;;;1.23;1.20;;;;;;;;;;7332366;19;162455;-14
2021/11/09 22:51:27;;;;;;;0.95;0.95;;;;;;;;;;7332379;19;154026;-13
2021/11/09 22:53:59;;;;;;;1.00;1.00;;;;;;;;;;7331571;19;153747;-14
2021/11/09 22:56:31;;;;;;;1.73;1.20;;;;;;;;;;7331003;19;161977;-15
2021/11/09 22:59:03;;;;;;;1.13;1.05;;;;;;;;;;7330199;19;162594;-13
2021/11/09 23:01:36;;;;;;;1.23;1.00;;;;;;;;;;7331592;19;154109;-13
2021/11/09 23:04:08;;;;;;;1.40;1.30;;;;;;;;;;7329088;19;153547;-13
2021/11/09 23:06:42;;;;;;;1.08;1.08;;;;;;;;;;7331649;19;161938;-13
2021/11/09 23:09:14;;;;;;;1.30;1.20;;;;;;;;;;7330917;19;162527;-15
2021/11/09 23:11:47;;;;;;;3.42;1.20;;;;;;;;;;7329575;19;153997;-14
2021/11/09 23:14:19;;;;;;;3.20;1.20;;;;;;;;;;7330805;19;153551;-13
2021/11/09 23:16:51;;;;;;;0.93;0.93;;;;;;;;;;7330589;19;161941;-14
2021/11/09 23:19:23;;;;;;;1.85;1.10;;;;;;;;;;7329215;19;162463;-13
2021/11/09 23:21:57;;;;;;;0.93;0.93;;;;;;;;;;7329954;19;154822;-13
2021/11/09 23:24:29;;;;;;;0.98;0.98;;;;;;;;;;7328514;19;153716;-15
2021/11/09 23:27:00;;;;;;;0.65;0.65;;;;;;;;;;7330293;19;162112;-12
2021/11/09 23:29:31;;;;;;;1.02;1.02;;;;;;;;;;7328265;19;162861;-13
2021/11/09 23:32:03;;;;;;;1.00;1.00;;;;;;;;;;7330729;19;154030;-14
2021/11/09 23:34:34;;;;;;;1.00;0.90;;;;;;;;;;7329818;19;153673;-14
2021/11/09 23:37:09;;;;;;;1.20;1.10;;;;;;;;;;7330406;19;161936;-12
2021/11/09 23:39:40;;;;;;;0.90;0.90;;;;;;;;;;7330053;19;162349;-14
2021/11/09 23:42:12;;;;;;;0.90;0.90;;;;;;;;;;7332248;19;154086;-14
2021/11/09 23:44:43;;;;;;;1.10;1.10;;;;;;;;;;7331712;19;154066;-13
2021/11/09 23:47:15;;;;;;;0.90;0.90;;;;;;;;;;7335893;19;161837;-13
2021/11/09 23:49:47;;;;;;;1.00;0.90;;;;;;;;;;7337479;19;162695;-14
2021/11/09 23:52:21;;;;;;;1.35;1.23;;;;;;;;;;7336804;19;154069;-14
2021/11/09 23:54:52;;;;;;;1.00;1.00;;;;;;;;;;7337776;19;153512;-13
2021/11/09 23:57:24;;;;;;;1.17;1.07;;;;;;;;;;7336680;19;162033;-13
2021/11/09 23:59:56;;;;;;;0.80;0.80;;;;;;;;;;7336671;19;162367;-15
